Terminal Aerodrome Forecast
Issued by NWS Quad Cities IA IL

Home | Current Version | Previous Version | Text Only | Print | Product List | Glossary On
Versions: 1 2 3 4 5 6 7 8 9 10 11 12 13 14 15 16 17 18 19 20 21 22 23 24 25 26 27 28 29 30
000
FTUS43 KDVN 241000 AAA
TAFDBQ
TAF AMD
KDBQ 241007Z 2410/2506 26005KT P6SM SKC
      TEMPO 2410/2414 4SM BR BKN015
     FM241600 27009KT P6SM SCT030 BKN150
     FM242000 24008KT P6SM BKN200
     FM250500 14005KT 4SM -RASN BR OVC040=

USA.gov is the U.S. government's official web portal to all federal, state and local government web resources and services.